createdAt,value
2018-03-11T00:00:14.805Z,10.55
2018-03-11T00:01:14.966Z,10.56
2018-03-11T00:02:15.167Z,10.67
2018-03-11T00:03:15.286Z,10.59
2018-03-11T00:04:15.445Z,10.55
2018-03-11T00:05:15.608Z,10.56
2018-03-11T00:06:15.767Z,10.59
2018-03-11T00:07:15.927Z,10.64
2018-03-11T00:08:16.087Z,10.64
2018-03-11T00:09:16.242Z,10.68
2018-03-11T00:10:16.402Z,10.68
2018-03-11T00:11:16.562Z,10.64
2018-03-11T00:12:16.722Z,10.70
2018-03-11T00:13:16.884Z,10.74
2018-03-11T00:14:17.044Z,10.73
2018-03-11T00:15:17.207Z,10.71
2018-03-11T00:16:17.360Z,10.79
2018-03-11T00:17:17.522Z,10.76
2018-03-11T00:18:17.684Z,10.78
2018-03-11T00:19:17.842Z,10.88
2018-03-11T00:20:18.002Z,10.86
2018-03-11T00:21:18.164Z,10.84
2018-03-11T00:22:18.323Z,10.79
2018-03-11T00:23:18.478Z,10.78
2018-03-11T00:24:18.651Z,10.88
2018-03-11T00:25:18.806Z,10.85
2018-03-11T00:26:18.967Z,10.84
2018-03-11T00:27:19.127Z,10.91
2018-03-11T00:28:19.289Z,10.96
2018-03-11T00:29:19.456Z,10.89
2018-03-11T00:30:19.610Z,10.86
2018-03-11T00:31:19.770Z,10.96
2018-03-11T00:32:19.932Z,10.88
2018-03-11T00:33:20.150Z,10.94
2018-03-11T00:34:20.310Z,10.94
2018-03-11T00:35:20.471Z,10.88
2018-03-11T00:36:20.631Z,10.92
2018-03-11T00:37:20.791Z,10.85
2018-03-11T00:38:20.952Z,11.00
2018-03-11T00:39:21.111Z,11.02
2018-03-11T00:40:21.272Z,11.00
2018-03-11T00:41:21.437Z,11.15
2018-03-11T00:42:21.593Z,11.06
2018-03-11T00:43:21.754Z,10.96
2018-03-11T00:44:21.915Z,11.02
2018-03-11T00:45:22.075Z,10.97
2018-03-11T00:46:22.236Z,11.03
2018-03-11T00:47:22.403Z,11.06
2018-03-11T00:48:22.561Z,11.06
2018-03-11T00:49:22.722Z,11.04
2018-03-11T00:50:22.882Z,11.02
2018-03-11T00:51:23.043Z,11.06
2018-03-11T00:52:23.203Z,11.03
2018-03-11T00:53:23.376Z,11.03
2018-03-11T00:54:23.536Z,11.06
2018-03-11T00:55:23.697Z,10.97
2018-03-11T00:56:23.857Z,10.99
2018-03-11T00:57:24.018Z,11.06
2018-03-11T00:58:24.178Z,11.03
2018-03-11T00:59:24.343Z,10.97
2018-03-11T01:00:24.498Z,10.92
2018-03-11T01:01:24.661Z,11.07
2018-03-11T01:02:24.821Z,11.02
2018-03-11T01:03:24.982Z,10.97
2018-03-11T01:04:25.139Z,11.14
2018-03-11T01:05:25.303Z,11.15
2018-03-11T01:06:25.463Z,11.19
2018-03-11T01:07:25.623Z,11.22
2018-03-11T01:08:25.784Z,11.25
2018-03-11T01:09:25.944Z,11.28
2018-03-11T01:10:26.104Z,11.36
2018-03-11T01:11:26.265Z,11.39
2018-03-11T01:12:26.422Z,11.42
2018-03-11T01:13:26.583Z,11.40
2018-03-11T01:14:26.743Z,11.43
2018-03-11T01:15:26.958Z,11.47
2018-03-11T01:16:27.066Z,11.55
2018-03-11T01:17:27.230Z,11.44
2018-03-11T01:18:27.389Z,11.55
2018-03-11T01:19:27.547Z,11.52
2018-03-11T01:20:27.708Z,11.52
2018-03-11T01:21:27.869Z,11.67
2018-03-11T01:22:28.029Z,11.60
2018-03-11T01:23:28.187Z,11.62
2018-03-11T01:24:28.351Z,11.60
2018-03-11T01:25:28.512Z,11.69
2018-03-11T01:26:28.673Z,11.49
2018-03-11T01:27:28.835Z,11.61
2018-03-11T01:28:28.995Z,11.62
2018-03-11T01:29:29.157Z,11.65
2018-03-11T01:30:29.319Z,11.57
2018-03-11T01:31:29.477Z,11.62
2018-03-11T01:32:29.636Z,11.60
2018-03-11T01:33:29.799Z,11.60
2018-03-11T01:34:29.960Z,11.55
2018-03-11T01:35:30.120Z,11.60
2018-03-11T01:36:30.283Z,11.54
2018-03-11T01:37:30.443Z,11.54
2018-03-11T01:38:30.603Z,11.54
2018-03-11T01:39:30.765Z,11.52
2018-03-11T01:40:30.925Z,11.55
2018-03-11T01:41:31.086Z,11.55
2018-03-11T01:42:31.246Z,11.40
2018-03-11T01:43:31.406Z,11.43
2018-03-11T01:44:31.565Z,11.54
2018-03-11T01:45:31.728Z,11.42
2018-03-11T01:46:31.884Z,11.42
2018-03-11T01:47:32.048Z,11.44
2018-03-11T01:48:32.209Z,11.46
2018-03-11T01:49:32.370Z,11.49
2018-03-11T01:50:32.532Z,11.49
2018-03-11T01:51:32.691Z,11.39
2018-03-11T01:52:32.853Z,11.46
2018-03-11T01:53:33.016Z,11.51
2018-03-11T01:54:33.175Z,11.36
2018-03-11T01:55:33.335Z,11.43
2018-03-11T01:56:33.498Z,11.44
2018-03-11T01:57:33.657Z,11.52
2018-03-11T01:58:33.818Z,11.47
2018-03-11T01:59:33.987Z,11.32
2018-03-11T02:00:34.205Z,11.37
2018-03-11T02:01:34.360Z,11.24
2018-03-11T02:02:34.520Z,11.25
2018-03-11T02:03:34.681Z,11.28
2018-03-11T02:04:34.890Z,11.29
2018-03-11T02:05:35.003Z,11.25
2018-03-11T02:06:35.164Z,11.25
2018-03-11T02:07:35.328Z,11.25
2018-03-11T02:08:35.486Z,11.24
2018-03-11T02:09:35.645Z,11.15
2018-03-11T02:10:35.808Z,11.10
2018-03-11T02:11:35.968Z,11.11
2018-03-11T02:12:36.128Z,11.10
2018-03-11T02:13:36.289Z,11.03
2018-03-11T02:14:36.449Z,11.15
2018-03-11T02:15:36.610Z,11.06
2018-03-11T02:16:36.777Z,11.03
2018-03-11T02:17:36.931Z,11.02
2018-03-11T02:18:37.093Z,11.00
2018-03-11T02:19:37.253Z,11.02
2018-03-11T02:20:37.415Z,10.97
2018-03-11T02:21:37.576Z,11.03
2018-03-11T02:22:37.737Z,10.91
2018-03-11T02:23:37.898Z,10.97
2018-03-11T02:24:38.059Z,11.00
2018-03-11T02:25:38.222Z,10.88
2018-03-11T02:26:38.380Z,10.96
2018-03-11T02:27:38.541Z,10.89
2018-03-11T02:28:38.702Z,10.88
2018-03-11T02:29:38.863Z,10.91
2018-03-11T02:30:39.032Z,10.85
2018-03-11T02:31:39.199Z,10.78
2018-03-11T02:32:39.357Z,10.85
2018-03-11T02:33:39.519Z,10.79
2018-03-11T02:34:39.693Z,10.89
2018-03-11T02:35:39.834Z,10.86
2018-03-11T02:36:40.002Z,10.82
2018-03-11T02:37:40.152Z,10.84
2018-03-11T02:38:40.317Z,10.71
2018-03-11T02:39:40.472Z,10.76
2018-03-11T02:40:40.709Z,10.67
2018-03-11T02:41:40.740Z,10.67
2018-03-11T02:42:40.903Z,10.64
2018-03-11T02:43:41.066Z,10.66
2018-03-11T02:44:41.226Z,10.59
2018-03-11T02:45:41.386Z,10.67
2018-03-11T02:46:41.543Z,10.55
2018-03-11T02:47:41.701Z,10.55
2018-03-11T02:48:41.863Z,10.59
2018-03-11T02:49:42.024Z,10.48
2018-03-11T02:50:42.184Z,10.56
2018-03-11T02:51:42.346Z,10.59
2018-03-11T02:52:42.507Z,10.47
2018-03-11T02:53:42.668Z,10.61
2018-03-11T02:54:42.827Z,10.66
2018-03-11T02:55:42.991Z,10.64
2018-03-11T02:56:43.149Z,10.61
2018-03-11T02:57:43.308Z,10.55
2018-03-11T02:58:43.468Z,10.52
2018-03-11T02:59:43.630Z,10.47
2018-03-11T03:00:43.794Z,10.64
2018-03-11T03:01:43.954Z,10.60
2018-03-11T03:02:44.115Z,10.56
2018-03-11T03:03:44.276Z,10.44
2018-03-11T03:04:44.434Z,10.40
2018-03-11T03:05:44.591Z,10.45
2018-03-11T03:06:44.754Z,10.42
2018-03-11T03:07:44.914Z,10.52
2018-03-11T03:08:45.075Z,10.48
2018-03-11T03:09:45.235Z,10.41
2018-03-11T03:10:45.395Z,10.51
2018-03-11T03:11:45.557Z,10.51
2018-03-11T03:12:45.715Z,10.47
2018-03-11T03:13:45.881Z,10.40
2018-03-11T03:14:46.036Z,10.47
2018-03-11T03:15:46.198Z,10.34
2018-03-11T03:16:46.354Z,10.42
2018-03-11T03:17:46.514Z,10.45
2018-03-11T03:18:46.673Z,10.40
2018-03-11T03:19:46.832Z,10.53
2018-03-11T03:20:46.985Z,10.40
2018-03-11T03:21:47.155Z,10.25
2018-03-11T03:22:47.314Z,10.22
2018-03-11T03:23:47.478Z,10.23
2018-03-11T03:24:47.634Z,10.26
2018-03-11T03:25:47.794Z,10.14
2018-03-11T03:26:47.954Z,10.23
2018-03-11T03:27:48.114Z,10.14
2018-03-11T03:28:48.280Z,10.17
2018-03-11T03:29:48.436Z,10.17
2018-03-11T03:30:48.627Z,10.22
2018-03-11T03:31:48.757Z,10.20
2018-03-11T03:32:48.923Z,10.20
2018-03-11T03:33:49.085Z,10.17
2018-03-11T03:34:49.242Z,10.18
2018-03-11T03:35:49.401Z,10.17
2018-03-11T03:36:49.564Z,10.15
2018-03-11T03:37:49.727Z,10.14
2018-03-11T03:38:49.883Z,10.01
2018-03-11T03:39:50.044Z,9.93
2018-03-11T03:40:50.205Z,9.97
2018-03-11T03:41:50.365Z,9.89
2018-03-11T03:42:50.530Z,9.84
2018-03-11T03:43:50.687Z,9.83
2018-03-11T03:44:50.847Z,9.86
2018-03-11T03:45:51.008Z,9.81
2018-03-11T03:46:51.167Z,9.72
2018-03-11T03:47:51.327Z,9.71
2018-03-11T03:48:51.483Z,9.69
2018-03-11T03:49:51.651Z,9.51
2018-03-11T03:50:51.812Z,9.42
2018-03-11T03:51:51.972Z,9.39
2018-03-11T03:52:52.131Z,9.26
2018-03-11T03:53:52.292Z,9.28
2018-03-11T03:54:52.450Z,9.31
2018-03-11T03:55:52.619Z,9.33
2018-03-11T03:56:52.779Z,9.28
2018-03-11T03:57:52.938Z,9.26
2018-03-11T03:58:53.097Z,9.28
2018-03-11T03:59:53.257Z,9.31
2018-03-11T04:00:53.412Z,9.23
2018-03-11T04:01:53.579Z,9.14
2018-03-11T04:02:53.739Z,9.24
2018-03-11T04:03:53.929Z,9.18
2018-03-11T04:04:54.067Z,9.04
2018-03-11T04:05:54.227Z,8.91
2018-03-11T04:06:54.386Z,8.94
2018-03-11T04:07:54.627Z,8.99
2018-03-11T04:08:54.661Z,8.95
2018-03-11T04:09:54.820Z,8.80
2018-03-11T04:10:54.979Z,8.83
2018-03-11T04:11:55.139Z,8.87
2018-03-11T04:12:55.299Z,8.87
2018-03-11T04:13:55.457Z,9.01
2018-03-11T04:14:55.621Z,8.86
2018-03-11T04:15:55.779Z,8.89
2018-03-11T04:16:55.937Z,8.91
2018-03-11T04:17:56.097Z,8.99
2018-03-11T04:18:56.296Z,8.98
2018-03-11T04:19:56.417Z,8.91
2018-03-11T04:20:56.561Z,8.91
2018-03-11T04:21:56.730Z,8.95
2018-03-11T04:22:56.873Z,8.95
2018-03-11T04:23:57.038Z,8.98
2018-03-11T04:24:57.191Z,8.84
2018-03-11T04:25:57.350Z,8.86
2018-03-11T04:26:57.508Z,8.86
2018-03-11T04:27:57.668Z,8.80
2018-03-11T04:28:57.827Z,8.81
2018-03-11T04:29:57.986Z,8.86
2018-03-11T04:30:58.144Z,8.79
2018-03-11T04:31:58.307Z,8.79
2018-03-11T04:32:58.460Z,8.87
2018-03-11T04:33:58.622Z,8.79
2018-03-11T04:34:58.782Z,8.73
2018-03-11T04:35:58.940Z,8.62
2018-03-11T04:36:59.099Z,8.59
2018-03-11T04:37:59.260Z,8.65
2018-03-11T04:38:59.423Z,8.70
2018-03-11T04:39:59.568Z,8.61
2018-03-11T04:40:59.727Z,8.68
2018-03-11T04:41:59.885Z,8.56
2018-03-11T04:43:00.051Z,8.56
2018-03-11T04:44:00.201Z,8.52
2018-03-11T04:45:00.360Z,8.52
2018-03-11T04:46:00.517Z,8.61
2018-03-11T04:47:00.677Z,8.53
2018-03-11T04:48:00.835Z,8.63
2018-03-11T04:49:00.992Z,8.55
2018-03-11T04:50:01.148Z,8.62
2018-03-11T04:51:01.301Z,8.55
2018-03-11T04:52:01.463Z,8.70
2018-03-11T04:53:01.624Z,8.59
2018-03-11T04:54:01.783Z,8.66
2018-03-11T04:55:01.956Z,8.48
2018-03-11T04:56:02.104Z,8.48
2018-03-11T04:57:02.271Z,8.44
2018-03-11T04:58:02.438Z,8.37
2018-03-11T04:59:02.589Z,8.47
2018-03-11T05:00:04.398Z,8.45
2018-03-11T05:01:02.933Z,8.43
2018-03-11T05:02:03.088Z,8.38
2018-03-11T05:03:03.247Z,8.29
2018-03-11T05:04:03.407Z,8.33
2018-03-11T05:05:03.564Z,8.38
2018-03-11T05:06:03.725Z,8.43
2018-03-11T05:07:03.882Z,8.50
2018-03-11T05:08:04.039Z,8.38
2018-03-11T05:09:04.198Z,8.34
2018-03-11T05:10:04.357Z,8.36
2018-03-11T05:11:04.518Z,8.43
2018-03-11T05:12:04.675Z,8.37
2018-03-11T05:13:04.842Z,8.53
2018-03-11T05:14:04.999Z,8.62
2018-03-11T05:15:05.158Z,8.61
2018-03-11T05:16:05.310Z,8.52
2018-03-11T05:17:05.486Z,8.71
2018-03-11T05:18:05.691Z,8.76
2018-03-11T05:19:05.852Z,8.77
2018-03-11T05:20:06.012Z,8.74
2018-03-11T05:21:06.171Z,8.74
2018-03-11T05:22:06.333Z,8.62
2018-03-11T05:23:06.489Z,8.66
2018-03-11T05:24:06.678Z,8.71
2018-03-11T05:25:06.829Z,8.73
2018-03-11T05:26:06.980Z,8.79
2018-03-11T05:27:07.139Z,8.74
2018-03-11T05:28:07.298Z,8.83
2018-03-11T05:29:07.460Z,8.81
2018-03-11T05:30:07.619Z,8.86
2018-03-11T05:31:07.771Z,8.95
2018-03-11T05:32:07.941Z,8.87
2018-03-11T05:33:08.097Z,8.86
2018-03-11T05:34:08.268Z,8.86
2018-03-11T05:35:08.426Z,8.84
2018-03-11T05:36:08.583Z,8.91
2018-03-11T05:37:08.740Z,8.89
2018-03-11T05:38:08.908Z,8.83
2018-03-11T05:39:09.057Z,8.86
2018-03-11T05:40:09.232Z,8.81
2018-03-11T05:41:09.390Z,8.84
2018-03-11T05:42:09.549Z,8.79
2018-03-11T05:43:09.708Z,8.81
2018-03-11T05:44:09.869Z,8.89
2018-03-11T05:45:10.028Z,8.83
2018-03-11T05:46:10.191Z,8.77
2018-03-11T05:47:10.352Z,8.79
2018-03-11T05:48:10.516Z,8.68
2018-03-11T05:49:10.671Z,8.61
2018-03-11T05:50:10.836Z,8.79
2018-03-11T05:51:10.995Z,8.62
2018-03-11T05:52:11.158Z,8.66
2018-03-11T05:53:11.316Z,8.61
2018-03-11T05:54:11.477Z,8.61
2018-03-11T05:55:11.629Z,8.56
2018-03-11T05:56:11.798Z,8.59
2018-03-11T05:57:11.959Z,8.56
2018-03-11T05:58:12.119Z,8.62
2018-03-11T05:59:12.279Z,8.61
2018-03-11T06:00:12.441Z,8.58
2018-03-11T06:01:12.600Z,8.62
2018-03-11T06:02:12.765Z,8.62
2018-03-11T06:03:12.941Z,8.59
2018-03-11T06:04:13.107Z,8.44
2018-03-11T06:05:13.265Z,8.59
2018-03-11T06:06:13.425Z,8.61
2018-03-11T06:07:13.584Z,8.59
2018-03-11T06:08:13.742Z,8.59
2018-03-11T06:09:13.916Z,8.65
2018-03-11T06:10:14.056Z,8.68
2018-03-11T06:11:14.215Z,8.70
2018-03-11T06:12:14.371Z,8.62
2018-03-11T06:13:14.530Z,8.56
2018-03-11T06:14:14.692Z,8.45
2018-03-11T06:15:14.850Z,8.47
2018-03-11T06:16:15.014Z,8.48
2018-03-11T06:17:15.165Z,8.55
2018-03-11T06:18:15.334Z,8.50
2018-03-11T06:19:15.490Z,8.59
2018-03-11T06:20:15.655Z,8.56
2018-03-11T06:21:15.820Z,8.55
2018-03-11T06:22:15.985Z,8.62
2018-03-11T06:23:16.143Z,8.71
2018-03-11T06:24:16.302Z,8.71
2018-03-11T06:25:16.460Z,8.74
2018-03-11T06:26:16.631Z,8.91
2018-03-11T06:27:16.790Z,8.79
2018-03-11T06:28:16.946Z,8.73
2018-03-11T06:29:17.106Z,8.73
2018-03-11T06:30:17.326Z,8.73
2018-03-11T06:31:17.415Z,8.74
2018-03-11T06:32:17.635Z,8.79
2018-03-11T06:33:17.798Z,8.79
2018-03-11T06:34:17.958Z,8.89
2018-03-11T06:35:18.118Z,8.91
2018-03-11T06:36:18.272Z,8.87
2018-03-11T06:37:18.443Z,8.92
2018-03-11T06:38:18.603Z,9.01
2018-03-11T06:39:18.763Z,9.13
2018-03-11T06:40:18.914Z,9.15
2018-03-11T06:41:19.084Z,9.26
2018-03-11T06:42:19.243Z,9.28
2018-03-11T06:43:19.404Z,9.23
2018-03-11T06:44:19.564Z,9.17
2018-03-11T06:45:19.725Z,9.29
2018-03-11T06:46:19.885Z,9.23
2018-03-11T06:47:20.048Z,9.29
2018-03-11T06:48:20.204Z,9.29
2018-03-11T06:49:20.368Z,9.32
2018-03-11T06:50:20.521Z,9.32
2018-03-11T06:51:20.692Z,9.24
2018-03-11T06:52:20.850Z,9.23
2018-03-11T06:53:21.014Z,9.28
2018-03-11T06:54:21.193Z,9.29
2018-03-11T06:55:21.347Z,9.39
2018-03-11T06:56:21.506Z,9.29
2018-03-11T06:57:21.670Z,9.42
2018-03-11T06:58:21.824Z,9.40
2018-03-11T06:59:21.978Z,9.54
2018-03-11T07:00:22.137Z,9.58
2018-03-11T07:01:22.302Z,9.57
2018-03-11T07:02:22.462Z,9.65
2018-03-11T07:03:22.621Z,9.76
2018-03-11T07:04:22.772Z,9.89
2018-03-11T07:05:22.939Z,9.89
2018-03-11T07:06:23.099Z,9.89
2018-03-11T07:07:23.261Z,9.93
2018-03-11T07:08:23.424Z,9.99
2018-03-11T07:09:23.583Z,10.08
2018-03-11T07:10:23.741Z,10.08
2018-03-11T07:11:23.905Z,10.12
2018-03-11T07:12:24.064Z,10.05
2018-03-11T07:13:24.226Z,10.04
2018-03-11T07:14:24.387Z,10.12
2018-03-11T07:15:24.553Z,10.18
2018-03-11T07:16:24.712Z,10.23
2018-03-11T07:17:24.883Z,10.29
2018-03-11T07:18:25.042Z,10.33
2018-03-11T07:19:25.202Z,10.29
2018-03-11T07:20:25.362Z,10.41
2018-03-11T07:21:25.516Z,10.29
2018-03-11T07:22:25.681Z,10.44
2018-03-11T07:23:25.842Z,10.44
2018-03-11T07:24:26.002Z,10.48
2018-03-11T07:25:26.162Z,10.44
2018-03-11T07:26:26.323Z,10.52
2018-03-11T07:27:26.483Z,10.52
2018-03-11T07:28:26.643Z,10.53
2018-03-11T07:29:26.803Z,10.64
2018-03-11T07:30:26.964Z,10.68
2018-03-11T07:31:27.125Z,10.67
2018-03-11T07:32:27.285Z,10.82
2018-03-11T07:33:27.445Z,10.85
2018-03-11T07:34:27.606Z,10.86
2018-03-11T07:35:27.769Z,10.89
2018-03-11T07:36:27.926Z,10.94
2018-03-11T07:37:28.088Z,11.00
2018-03-11T07:38:28.248Z,10.99
2018-03-11T07:39:28.408Z,11.06
2018-03-11T07:40:28.561Z,11.03
2018-03-11T07:41:28.728Z,11.10
2018-03-11T07:42:28.886Z,11.27
2018-03-11T07:43:29.047Z,11.32
2018-03-11T07:44:29.208Z,11.35
2018-03-11T07:45:29.369Z,11.19
2018-03-11T07:46:29.529Z,11.27
2018-03-11T07:47:29.690Z,11.40
2018-03-11T07:48:29.852Z,11.36
2018-03-11T07:49:30.015Z,11.40
2018-03-11T07:50:30.175Z,11.51
2018-03-11T07:51:30.338Z,11.52
2018-03-11T07:52:30.495Z,11.61
2018-03-11T07:53:30.656Z,11.67
2018-03-11T07:54:30.884Z,11.67
2018-03-11T07:55:30.979Z,11.91
2018-03-11T07:56:31.140Z,11.95
2018-03-11T07:57:31.302Z,12.01
2018-03-11T07:58:31.462Z,12.07
2018-03-11T07:59:31.623Z,12.20
2018-03-11T08:00:31.783Z,12.21
2018-03-11T08:01:31.951Z,12.37
2018-03-11T08:02:32.103Z,12.45
2018-03-11T08:03:32.267Z,12.49
2018-03-11T08:04:32.426Z,12.59
2018-03-11T08:05:32.589Z,12.57
2018-03-11T08:06:32.751Z,12.62
2018-03-11T08:07:32.916Z,12.70
2018-03-11T08:08:33.073Z,12.71
2018-03-11T08:09:33.235Z,12.77
2018-03-11T08:10:33.396Z,12.77
2018-03-11T08:11:33.558Z,12.92
2018-03-11T08:12:33.716Z,12.92
2018-03-11T08:13:33.879Z,13.07
2018-03-11T08:14:34.084Z,13.04
2018-03-11T08:15:34.189Z,13.11
2018-03-11T08:16:34.369Z,13.08
2018-03-11T08:17:34.526Z,13.11
2018-03-11T08:18:34.681Z,13.17
2018-03-11T08:19:34.841Z,13.17
2018-03-11T08:20:35.002Z,13.15
2018-03-11T08:21:35.165Z,13.17
2018-03-11T08:22:35.325Z,13.14
2018-03-11T08:23:35.488Z,13.11
2018-03-11T08:24:35.650Z,13.19
2018-03-11T08:25:35.812Z,13.08
2018-03-11T08:26:35.974Z,13.15
2018-03-11T08:27:36.136Z,13.08
2018-03-11T08:28:36.298Z,13.12
2018-03-11T08:29:36.460Z,13.12
2018-03-11T08:30:36.625Z,13.19
2018-03-11T08:31:36.783Z,13.19
2018-03-11T08:32:36.945Z,13.28
2018-03-11T08:33:37.108Z,13.32
2018-03-11T08:34:37.303Z,13.42
2018-03-11T08:35:37.462Z,13.36
2018-03-11T08:36:37.623Z,13.41
2018-03-11T08:37:37.785Z,13.44
2018-03-11T08:38:37.950Z,13.44
2018-03-11T08:39:38.111Z,13.49
2018-03-11T08:40:38.273Z,13.57
2018-03-11T08:41:38.436Z,13.55
2018-03-11T08:42:38.597Z,13.62
2018-03-11T08:43:38.759Z,13.70
2018-03-11T08:44:38.934Z,13.79
2018-03-11T08:45:39.088Z,13.70
2018-03-11T08:46:39.250Z,13.82
2018-03-11T08:47:39.410Z,13.69
2018-03-11T08:48:39.572Z,13.81
2018-03-11T08:49:39.733Z,13.87
2018-03-11T08:50:39.904Z,13.91
2018-03-11T08:51:40.056Z,13.92
2018-03-11T08:52:40.226Z,13.99
2018-03-11T08:53:40.381Z,14.00
2018-03-11T08:54:40.548Z,14.17
2018-03-11T08:55:40.702Z,14.07
2018-03-11T08:56:40.894Z,14.18
2018-03-11T08:57:41.055Z,14.28
2018-03-11T08:58:41.218Z,14.36
2018-03-11T08:59:41.381Z,14.47
2018-03-11T09:00:41.546Z,14.46
2018-03-11T09:01:41.706Z,14.61
2018-03-11T09:02:41.868Z,14.60
2018-03-11T09:03:42.035Z,14.70
2018-03-11T09:04:42.195Z,14.83
2018-03-11T09:05:42.364Z,14.84
2018-03-11T09:06:42.516Z,14.95
2018-03-11T09:07:42.687Z,14.99
2018-03-11T09:08:42.838Z,15.03
2018-03-11T09:09:43.008Z,15.14
2018-03-11T09:10:43.166Z,15.19
2018-03-11T09:11:43.331Z,15.35
2018-03-11T09:12:43.486Z,15.34
2018-03-11T09:13:43.654Z,15.32
2018-03-11T09:14:43.808Z,15.35
2018-03-11T09:15:43.981Z,15.44
2018-03-11T09:16:44.208Z,15.39
2018-03-11T09:17:44.244Z,15.28
2018-03-11T09:18:44.407Z,15.25
2018-03-11T09:19:44.578Z,15.03
2018-03-11T09:20:44.742Z,15.14
2018-03-11T09:21:44.906Z,15.07
2018-03-11T09:22:45.070Z,15.06
2018-03-11T09:23:45.232Z,15.01
2018-03-11T09:24:45.396Z,15.10
2018-03-11T09:25:45.562Z,15.14
2018-03-11T09:26:45.731Z,15.21
2018-03-11T09:27:45.883Z,15.34
2018-03-11T09:28:46.047Z,15.28
2018-03-11T09:29:46.212Z,15.35
2018-03-11T09:30:46.372Z,15.36
2018-03-11T09:31:46.534Z,15.43
2018-03-11T09:32:46.701Z,15.44
2018-03-11T09:33:46.855Z,15.43
2018-03-11T09:34:47.017Z,15.46
2018-03-11T09:35:47.192Z,15.53
2018-03-11T09:36:47.343Z,15.56
2018-03-11T09:37:47.509Z,15.59
2018-03-11T09:38:47.664Z,15.59
2018-03-11T09:39:47.834Z,15.72
2018-03-11T09:40:47.993Z,15.65
2018-03-11T09:41:48.158Z,15.67
2018-03-11T09:42:48.327Z,15.76
2018-03-11T09:43:48.496Z,15.74
2018-03-11T09:44:48.659Z,15.84
2018-03-11T09:45:48.822Z,15.78
2018-03-11T09:46:48.987Z,15.54
2018-03-11T09:47:49.151Z,15.69
2018-03-11T09:48:49.315Z,15.62
2018-03-11T09:49:49.479Z,15.62
2018-03-11T09:50:49.657Z,15.69
2018-03-11T09:51:49.804Z,15.87
2018-03-11T09:52:49.973Z,15.90
2018-03-11T09:53:50.128Z,16.00
2018-03-11T09:54:50.348Z,15.90
2018-03-11T09:55:50.452Z,15.86
2018-03-11T09:56:50.661Z,16.00
2018-03-11T09:57:50.776Z,16.01
2018-03-11T09:58:50.945Z,16.11
2018-03-11T09:59:51.098Z,16.11
2018-03-11T10:00:51.265Z,16.25
2018-03-11T10:01:51.420Z,16.38
2018-03-11T10:02:51.587Z,16.34
2018-03-11T10:03:51.757Z,16.48
2018-03-11T10:04:51.923Z,16.56
2018-03-11T10:05:52.086Z,16.76
2018-03-11T10:06:52.249Z,16.81
2018-03-11T10:07:52.412Z,17.00
2018-03-11T10:08:52.561Z,16.93
2018-03-11T10:09:52.739Z,16.89
2018-03-11T10:10:52.906Z,16.97
2018-03-11T10:11:53.075Z,17.07
2018-03-11T10:12:53.231Z,17.11
2018-03-11T10:13:53.397Z,17.15
2018-03-11T10:14:53.556Z,17.22
2018-03-11T10:15:53.719Z,17.23
2018-03-11T10:16:53.895Z,17.33
2018-03-11T10:17:54.059Z,17.44
2018-03-11T10:18:54.224Z,17.46
2018-03-11T10:19:54.388Z,17.48
2018-03-11T10:20:54.553Z,17.49
2018-03-11T10:21:54.750Z,17.49
2018-03-11T10:22:54.883Z,17.64
2018-03-11T10:23:55.048Z,17.49
2018-03-11T10:24:55.216Z,17.59
2018-03-11T10:25:55.372Z,17.62
2018-03-11T10:26:55.540Z,17.63
2018-03-11T10:27:55.699Z,17.71
2018-03-11T10:28:55.859Z,17.81
2018-03-11T10:29:56.037Z,17.79
2018-03-11T10:30:56.202Z,17.87
2018-03-11T10:31:56.367Z,17.81
2018-03-11T10:32:56.532Z,17.95
2018-03-11T10:33:56.698Z,17.96
2018-03-11T10:34:56.863Z,18.03
2018-03-11T10:35:57.028Z,18.17
2018-03-11T10:36:57.191Z,18.25
2018-03-11T10:37:57.363Z,18.27
2018-03-11T10:38:57.519Z,18.52
2018-03-11T10:39:57.681Z,18.63
2018-03-11T10:40:57.856Z,18.55
2018-03-11T10:41:58.055Z,18.67
2018-03-11T10:42:58.175Z,18.67
2018-03-11T10:43:58.341Z,18.70
2018-03-11T10:44:58.510Z,18.85
2018-03-11T10:45:58.674Z,18.88
2018-03-11T10:46:58.840Z,19.10
2018-03-11T10:47:59.005Z,19.19
2018-03-11T10:48:59.177Z,19.23
2018-03-11T10:49:59.335Z,19.29
2018-03-11T10:50:59.560Z,19.28
2018-03-11T10:51:59.664Z,19.28
2018-03-11T10:52:59.827Z,19.33
2018-03-11T10:53:59.997Z,19.37
2018-03-11T10:55:00.165Z,19.32
2018-03-11T10:56:00.331Z,19.25
2018-03-11T10:57:00.532Z,19.40
2018-03-11T10:58:00.662Z,19.39
2018-03-11T10:59:00.833Z,19.32
2018-03-11T11:00:04.218Z,19.43
2018-03-11T11:01:01.153Z,19.58
2018-03-11T11:02:01.320Z,19.50
2018-03-11T11:03:01.489Z,19.50
2018-03-11T11:04:01.642Z,19.58
2018-03-11T11:05:01.800Z,19.48
2018-03-11T11:06:01.967Z,19.63
2018-03-11T11:07:02.137Z,19.62
2018-03-11T11:08:02.300Z,19.46
2018-03-11T11:09:02.464Z,19.50
2018-03-11T11:10:02.632Z,19.47
2018-03-11T11:11:02.798Z,19.47
2018-03-11T11:12:02.959Z,19.47
2018-03-11T11:13:03.129Z,19.43
2018-03-11T11:14:03.293Z,19.44
2018-03-11T11:15:03.463Z,19.36
2018-03-11T11:16:03.621Z,19.36
2018-03-11T11:17:03.783Z,19.23
2018-03-11T11:18:03.957Z,19.19
2018-03-11T11:19:04.124Z,19.16
2018-03-11T11:20:04.291Z,19.18
2018-03-11T11:21:04.457Z,19.19
2018-03-11T11:22:04.628Z,19.19
2018-03-11T11:23:04.791Z,19.11
2018-03-11T11:24:05.004Z,19.18
2018-03-11T11:25:05.119Z,19.08
2018-03-11T11:26:05.282Z,19.02
2018-03-11T11:27:05.452Z,18.99
2018-03-11T11:28:05.617Z,19.04
2018-03-11T11:29:05.787Z,19.06
2018-03-11T11:30:05.953Z,19.00
2018-03-11T11:31:06.118Z,19.08
2018-03-11T11:32:06.285Z,18.95
2018-03-11T11:33:06.453Z,19.04
2018-03-11T11:34:06.611Z,19.00
2018-03-11T11:35:06.779Z,18.99
2018-03-11T11:36:06.940Z,18.99
2018-03-11T11:37:07.102Z,19.07
2018-03-11T11:38:07.274Z,19.08
2018-03-11T11:39:07.441Z,18.99
2018-03-11T11:40:07.607Z,18.99
2018-03-11T11:41:07.777Z,19.07
2018-03-11T11:42:07.940Z,18.98
2018-03-11T11:43:08.123Z,18.87
2018-03-11T11:44:08.278Z,18.76
2018-03-11T11:45:08.435Z,18.88
2018-03-11T11:46:08.639Z,18.84
2018-03-11T11:47:08.778Z,18.78
2018-03-11T11:48:08.943Z,18.69
2018-03-11T11:49:09.110Z,18.70
2018-03-11T11:50:09.276Z,18.63
2018-03-11T11:51:09.439Z,18.73
2018-03-11T11:52:09.605Z,18.69
2018-03-11T11:53:09.771Z,18.65
2018-03-11T11:54:09.934Z,18.75
2018-03-11T11:55:10.104Z,18.70
2018-03-11T11:56:10.284Z,18.67
2018-03-11T11:57:10.436Z,18.62
2018-03-11T11:58:10.621Z,18.58
2018-03-11T11:59:10.770Z,18.72
2018-03-11T12:00:10.913Z,18.63
2018-03-11T12:01:11.095Z,18.63
2018-03-11T12:02:11.239Z,18.60
2018-03-11T12:03:11.405Z,18.55
2018-03-11T12:04:11.571Z,18.60
2018-03-11T12:05:11.736Z,18.32
2018-03-11T12:06:11.904Z,18.39
2018-03-11T12:07:12.064Z,18.42
2018-03-11T12:08:12.240Z,18.35
2018-03-11T12:09:12.393Z,18.39
2018-03-11T12:10:12.556Z,18.30
2018-03-11T12:11:12.730Z,18.29
2018-03-11T12:12:12.898Z,18.23
2018-03-11T12:13:13.060Z,18.29
2018-03-11T12:14:13.225Z,18.23
2018-03-11T12:15:13.393Z,18.32
2018-03-11T12:16:13.572Z,18.32
2018-03-11T12:17:13.732Z,18.32
2018-03-11T12:18:13.888Z,18.33
2018-03-11T12:19:14.055Z,18.25
2018-03-11T12:20:14.212Z,18.33
2018-03-11T12:21:14.376Z,18.44
2018-03-11T12:22:14.549Z,18.45
2018-03-11T12:23:14.708Z,18.63
2018-03-11T12:24:14.881Z,18.60
2018-03-11T12:25:15.046Z,18.69
2018-03-11T12:26:15.213Z,18.52
2018-03-11T12:27:15.376Z,18.45
2018-03-11T12:28:15.551Z,18.60
2018-03-11T12:29:15.704Z,18.60
2018-03-11T12:30:15.872Z,18.72
2018-03-11T12:31:16.030Z,18.73
2018-03-11T12:32:16.202Z,18.98
2018-03-11T12:33:16.375Z,19.06
2018-03-11T12:34:16.541Z,19.08
2018-03-11T12:35:16.708Z,19.25
2018-03-11T12:36:16.874Z,19.31
2018-03-11T12:37:17.038Z,19.40
2018-03-11T12:38:17.202Z,19.46
2018-03-11T12:39:17.373Z,19.51
2018-03-11T12:40:17.530Z,19.46
2018-03-11T12:41:17.696Z,19.26
2018-03-11T12:42:17.873Z,19.33
2018-03-11T12:43:18.034Z,19.28
2018-03-11T12:44:18.202Z,19.14
2018-03-11T12:45:18.408Z,19.11
2018-03-11T12:46:18.534Z,19.06
2018-03-11T12:47:18.699Z,19.07
2018-03-11T12:48:18.872Z,18.95
2018-03-11T12:49:19.023Z,18.88
2018-03-11T12:50:19.192Z,18.84
2018-03-11T12:51:19.349Z,18.70
2018-03-11T12:52:19.512Z,18.84
2018-03-11T12:53:19.685Z,18.94
2018-03-11T12:54:19.851Z,18.98
2018-03-11T12:55:20.016Z,18.92
2018-03-11T12:56:20.188Z,19.04
2018-03-11T12:57:20.355Z,19.07
2018-03-11T12:58:20.517Z,19.04
2018-03-11T12:59:20.687Z,19.06
2018-03-11T13:00:20.886Z,19.14
2018-03-11T13:01:21.052Z,19.18